Time;durP1;ratioP1;P1;durP2;ratioP2;P2;SDS_P1;SDS_P2;PMS_P1;PMS_P2;Temp;Humidity;BMP_temperature;BMP_pressure;BME280_temperature;BME280_humidity;BME280_pressure;Samples;Min_cycle;Max_cycle;Signal;HPM_P1;HPM_P2
2021/06/26 00:01:10;;;;;;;8.02;6.00;;;;;;;;;;5069302;28;20052;-43
2021/06/26 00:03:37;;;;;;;6.32;5.60;;;;;;;;;;5074438;28;20484;-44
2021/06/26 00:06:04;;;;;;;7.35;6.15;;;;;;;;;;5074155;28;20132;-42
2021/06/26 00:08:31;;;;;;;6.32;5.53;;;;;;;;;;5071453;28;20080;-45
2021/06/26 00:10:59;;;;;;;8.07;6.03;;;;;;;;;;5035632;28;20119;-43
2021/06/26 00:13:26;;;;;;;6.55;5.60;;;;;;;;;;5054216;28;20133;-43
2021/06/26 00:15:53;;;;;;;6.68;5.70;;;;;;;;;;5054085;28;20395;-47
2021/06/26 00:18:19;;;;;;;6.47;5.47;;;;;;;;;;5063190;28;20126;-48
2021/06/26 00:20:46;;;;;;;6.90;5.90;;;;;;;;;;5073284;28;20458;-46
2021/06/26 00:23:13;;;;;;;8.32;5.88;;;;;;;;;;5057133;28;20080;-46
2021/06/26 00:25:40;;;;;;;7.53;5.88;;;;;;;;;;5053576;28;20045;-47
2021/06/26 00:28:07;;;;;;;6.65;5.43;;;;;;;;;;5053929;28;20060;-44
2021/06/26 00:30:33;;;;;;;8.73;5.90;;;;;;;;;;5060371;28;20044;-45
2021/06/26 00:33:01;;;;;;;7.43;6.05;;;;;;;;;;5083830;28;20048;-44
2021/06/26 00:35:28;;;;;;;8.45;6.82;;;;;;;;;;5073476;28;20057;-44
2021/06/26 00:37:54;;;;;;;8.68;5.63;;;;;;;;;;5073662;28;20094;-44
2021/06/26 00:40:21;;;;;;;7.78;5.90;;;;;;;;;;5064870;28;20115;-49
2021/06/26 00:42:48;;;;;;;8.00;6.13;;;;;;;;;;5051120;28;20136;-44
2021/06/26 00:45:16;;;;;;;8.95;6.45;;;;;;;;;;5053372;28;20131;-47
2021/06/26 00:47:42;;;;;;;7.35;6.22;;;;;;;;;;5053631;28;20124;-46
2021/06/26 00:50:23;;;;;;;7.63;6.25;;;;;;;;;;5053288;28;20358;-45
2021/06/26 00:52:50;;;;;;;9.65;7.15;;;;;;;;;;5053317;28;20437;-47
2021/06/26 00:55:17;;;;;;;8.20;6.65;;;;;;;;;;5066058;28;20573;-47
2021/06/26 00:57:45;;;;;;;8.93;6.47;;;;;;;;;;5073366;28;20106;-44
2021/06/26 01:00:13;;;;;;;9.38;6.25;;;;;;;;;;5065543;28;20140;-48
2021/06/26 01:02:40;;;;;;;9.07;6.35;;;;;;;;;;5052740;28;20049;-47
2021/06/26 01:05:07;;;;;;;8.45;6.95;;;;;;;;;;5053110;28;20142;-48
2021/06/26 01:07:34;;;;;;;7.85;6.45;;;;;;;;;;5053196;28;20049;-48
2021/06/26 01:10:02;;;;;;;8.73;6.03;;;;;;;;;;5053093;28;20052;-48
2021/06/26 01:12:29;;;;;;;7.90;6.18;;;;;;;;;;5052225;28;20080;-46
2021/06/26 01:14:57;;;;;;;7.68;6.32;;;;;;;;;;5053241;28;20076;-44
2021/06/26 01:17:23;;;;;;;8.18;6.22;;;;;;;;;;5052786;28;20076;-44
2021/06/26 01:19:50;;;;;;;7.68;6.18;;;;;;;;;;5052686;28;20049;-44
2021/06/26 01:22:20;;;;;;;7.15;5.32;;;;;;;;;;5051920;28;20480;-45
2021/06/26 01:24:50;;;;;;;6.53;5.53;;;;;;;;;;5052851;28;20490;-43
2021/06/26 01:27:17;;;;;;;8.55;6.43;;;;;;;;;;5052757;28;20051;-46
2021/06/26 01:29:51;;;;;;;10.05;6.93;;;;;;;;;;5052638;28;20123;-46
2021/06/26 01:32:18;;;;;;;8.25;6.43;;;;;;;;;;5064418;28;20044;-43
2021/06/26 01:34:45;;;;;;;9.20;6.60;;;;;;;;;;5072732;28;20110;-44
2021/06/26 01:37:12;;;;;;;7.82;6.20;;;;;;;;;;5072389;28;20131;-43
2021/06/26 01:39:39;;;;;;;9.05;5.95;;;;;;;;;;5072341;28;20052;-43
2021/06/26 01:42:07;;;;;;;7.35;6.30;;;;;;;;;;5053294;28;20128;-43
2021/06/26 01:44:34;;;;;;;8.98;6.25;;;;;;;;;;5052189;28;20076;-44
2021/06/26 01:47:00;;;;;;;8.63;6.32;;;;;;;;;;5052636;28;20071;-45
2021/06/26 01:49:27;;;;;;;9.45;6.38;;;;;;;;;;5055916;28;20063;-44
2021/06/26 01:51:54;;;;;;;8.45;6.38;;;;;;;;;;5065834;28;20498;-43
2021/06/26 01:54:21;;;;;;;8.93;6.47;;;;;;;;;;5057220;28;20056;-44
2021/06/26 01:56:47;;;;;;;7.93;7.13;;;;;;;;;;5071928;28;20052;-43
2021/06/26 01:59:15;;;;;;;9.98;7.65;;;;;;;;;;5072415;28;20463;-46
2021/06/26 02:01:42;;;;;;;10.10;7.63;;;;;;;;;;5066556;28;20080;-46
2021/06/26 02:04:09;;;;;;;10.77;8.70;;;;;;;;;;5070857;28;20072;-46
2021/06/26 02:06:36;;;;;;;9.88;8.68;;;;;;;;;;5073680;28;20076;-46
2021/06/26 02:09:03;;;;;;;11.23;8.80;;;;;;;;;;5073410;28;20052;-47
2021/06/26 02:11:29;;;;;;;11.48;8.85;;;;;;;;;;5052120;28;20045;-48
2021/06/26 02:13:56;;;;;;;11.80;9.50;;;;;;;;;;5052868;28;20045;-45
2021/06/26 02:16:23;;;;;;;12.80;9.25;;;;;;;;;;5053060;28;20760;-47
2021/06/26 02:18:50;;;;;;;12.70;8.93;;;;;;;;;;5053165;28;20048;-48
2021/06/26 02:21:17;;;;;;;9.43;7.53;;;;;;;;;;5052152;28;20076;-48
2021/06/26 02:23:43;;;;;;;9.18;7.43;;;;;;;;;;5052931;28;20083;-46
2021/06/26 02:26:10;;;;;;;9.98;7.70;;;;;;;;;;5052988;28;20131;-47
2021/06/26 02:28:37;;;;;;;9.45;7.45;;;;;;;;;;5053410;28;20131;-48
2021/06/26 02:31:04;;;;;;;9.40;7.93;;;;;;;;;;5052348;28;20618;-49
2021/06/26 02:33:30;;;;;;;11.05;8.23;;;;;;;;;;5053345;28;20052;-48
2021/06/26 02:35:57;;;;;;;10.43;8.35;;;;;;;;;;5052796;28;20084;-46
2021/06/26 02:38:24;;;;;;;10.93;8.88;;;;;;;;;;5052769;28;20191;-47
2021/06/26 02:40:51;;;;;;;13.75;9.38;;;;;;;;;;5051657;28;20128;-46
2021/06/26 02:43:19;;;;;;;11.55;8.88;;;;;;;;;;5052871;28;20072;-49
2021/06/26 02:45:46;;;;;;;10.55;8.30;;;;;;;;;;5052530;28;20081;-46
2021/06/26 02:48:13;;;;;;;9.02;7.45;;;;;;;;;;5052350;28;20183;-47
2021/06/26 02:50:40;;;;;;;10.73;8.52;;;;;;;;;;5052235;28;20076;-50
2021/06/26 02:53:08;;;;;;;10.95;8.30;;;;;;;;;;5052153;28;20106;-47
2021/06/26 02:55:34;;;;;;;9.50;8.13;;;;;;;;;;5067563;28;20124;-45
2021/06/26 02:58:01;;;;;;;8.38;7.18;;;;;;;;;;5054766;28;20135;-48
2021/06/26 03:00:28;;;;;;;8.07;5.68;;;;;;;;;;5071246;28;20517;-44
2021/06/26 03:02:55;;;;;;;8.30;7.03;;;;;;;;;;5055568;28;20557;-48
2021/06/26 03:05:22;;;;;;;7.55;6.53;;;;;;;;;;5051949;28;20422;-46
2021/06/26 03:07:50;;;;;;;9.55;6.72;;;;;;;;;;5051770;28;20074;-45
2021/06/26 03:10:17;;;;;;;7.40;5.85;;;;;;;;;;5034040;28;20045;-52
2021/06/26 03:12:44;;;;;;;7.53;6.50;;;;;;;;;;5051460;28;20128;-46
2021/06/26 03:15:11;;;;;;;8.30;6.93;;;;;;;;;;5052287;28;20049;-46
2021/06/26 03:17:38;;;;;;;8.30;6.80;;;;;;;;;;5051924;28;20080;-48
2021/06/26 03:20:06;;;;;;;8.18;6.47;;;;;;;;;;5051955;28;20080;-45
2021/06/26 03:22:32;;;;;;;9.27;6.88;;;;;;;;;;5051113;28;20402;-49
2021/06/26 03:24:59;;;;;;;8.77;6.70;;;;;;;;;;5051961;28;20079;-49
2021/06/26 03:27:27;;;;;;;9.75;6.97;;;;;;;;;;5052207;28;20081;-45
2021/06/26 03:29:53;;;;;;;12.25;7.22;;;;;;;;;;5052182;28;20069;-47
2021/06/26 03:32:20;;;;;;;10.18;6.60;;;;;;;;;;5051195;28;20064;-46
2021/06/26 03:34:47;;;;;;;9.43;7.30;;;;;;;;;;5051773;28;20051;-46
2021/06/26 03:37:14;;;;;;;8.10;5.95;;;;;;;;;;5051705;28;20057;-47
2021/06/26 03:39:40;;;;;;;11.05;6.47;;;;;;;;;;5056568;28;20125;-46
2021/06/26 03:42:09;;;;;;;8.35;7.03;;;;;;;;;;5089534;28;20398;-49
2021/06/26 03:44:35;;;;;;;10.93;6.90;;;;;;;;;;5091447;28;20130;-48
2021/06/26 03:47:02;;;;;;;9.85;6.50;;;;;;;;;;5091763;28;20591;-49
2021/06/26 03:49:33;;;;;;;7.47;6.18;;;;;;;;;;5064223;28;20556;-49
2021/06/26 03:52:00;;;;;;;9.18;6.53;;;;;;;;;;5050730;28;20069;-45
2021/06/26 03:54:27;;;;;;;7.95;6.20;;;;;;;;;;5057467;28;20048;-45
2021/06/26 03:56:54;;;;;;;10.63;6.18;;;;;;;;;;5071448;28;20059;-46
2021/06/26 03:59:20;;;;;;;8.55;6.03;;;;;;;;;;5071181;28;20136;-47
2021/06/26 04:01:47;;;;;;;7.55;6.18;;;;;;;;;;5062894;28;20387;-45
2021/06/26 04:04:14;;;;;;;7.75;6.68;;;;;;;;;;5069139;28;20049;-48
2021/06/26 04:06:41;;;;;;;10.90;6.97;;;;;;;;;;5071102;28;20091;-45
2021/06/26 04:09:08;;;;;;;9.07;6.32;;;;;;;;;;5071172;28;20076;-44
2021/06/26 04:11:34;;;;;;;7.82;6.22;;;;;;;;;;5063170;28;20120;-44
2021/06/26 04:14:01;;;;;;;7.82;6.50;;;;;;;;;;5051236;28;20561;-45
2021/06/26 04:16:28;;;;;;;7.35;5.50;;;;;;;;;;5050668;28;20215;-45
2021/06/26 04:18:55;;;;;;;8.23;6.60;;;;;;;;;;5053231;28;20076;-47
2021/06/26 04:21:21;;;;;;;8.52;7.32;;;;;;;;;;5054072;28;20072;-49
2021/06/26 04:23:48;;;;;;;8.32;6.40;;;;;;;;;;5054863;28;20111;-44
2021/06/26 04:26:15;;;;;;;9.88;6.63;;;;;;;;;;5055234;28;20461;-47
2021/06/26 04:28:42;;;;;;;9.18;7.30;;;;;;;;;;5054742;28;20383;-46
2021/06/26 04:31:09;;;;;;;9.57;6.75;;;;;;;;;;5053930;28;20037;-44
2021/06/26 04:33:36;;;;;;;6.95;6.00;;;;;;;;;;5054930;28;20068;-45
2021/06/26 04:36:05;;;;;;;7.90;6.20;;;;;;;;;;5054868;28;20485;-48
2021/06/26 04:38:31;;;;;;;10.13;7.78;;;;;;;;;;5055232;28;20049;-47
2021/06/26 04:40:58;;;;;;;9.68;6.88;;;;;;;;;;5053984;28;20087;-45
2021/06/26 04:43:25;;;;;;;8.90;7.07;;;;;;;;;;5054696;28;20080;-47
2021/06/26 04:45:52;;;;;;;11.52;8.52;;;;;;;;;;5054745;28;20084;-47
2021/06/26 04:48:24;;;;;;;11.95;8.65;;;;;;;;;;5054460;28;20461;-45
2021/06/26 04:50:51;;;;;;;10.43;8.00;;;;;;;;;;5036163;28;20064;-48
2021/06/26 04:53:18;;;;;;;11.02;9.50;;;;;;;;;;5054567;28;20052;-47
2021/06/26 04:55:51;;;;;;;11.18;8.63;;;;;;;;;;5071435;28;20080;-47
2021/06/26 04:58:19;;;;;;;10.85;8.75;;;;;;;;;;5075018;28;20048;-46
2021/06/26 05:00:50;;;;;;;11.88;9.00;;;;;;;;;;5064280;28;20061;-47
2021/06/26 05:03:20;;;;;;;10.00;7.90;;;;;;;;;;5055343;28;20053;-43
2021/06/26 05:05:48;;;;;;;12.90;8.30;;;;;;;;;;5054516;28;20071;-46
2021/06/26 05:08:15;;;;;;;12.27;9.43;;;;;;;;;;5054670;28;20128;-48
2021/06/26 05:10:41;;;;;;;10.55;8.52;;;;;;;;;;5053916;28;20052;-46
2021/06/26 05:13:08;;;;;;;10.13;8.30;;;;;;;;;;5054507;28;20080;-46
2021/06/26 05:15:35;;;;;;;9.55;7.82;;;;;;;;;;5054249;28;20053;-50
2021/06/26 05:18:03;;;;;;;8.65;7.53;;;;;;;;;;5054243;28;20041;-46
2021/06/26 05:20:29;;;;;;;8.43;7.07;;;;;;;;;;5054338;28;20061;-48
2021/06/26 05:22:57;;;;;;;9.20;6.43;;;;;;;;;;5053128;28;20104;-45
2021/06/26 05:25:23;;;;;;;7.90;6.50;;;;;;;;;;5054108;28;20129;-45
2021/06/26 05:27:51;;;;;;;9.02;7.82;;;;;;;;;;5053937;28;20433;-47
2021/06/26 05:30:17;;;;;;;9.63;7.38;;;;;;;;;;5053558;28;20461;-47
2021/06/26 05:32:44;;;;;;;11.20;7.70;;;;;;;;;;5053641;28;20533;-49
2021/06/26 05:35:11;;;;;;;8.60;7.35;;;;;;;;;;5054068;28;20052;-47
2021/06/26 05:37:38;;;;;;;9.80;7.43;;;;;;;;;;5054244;28;20049;-48
2021/06/26 05:40:05;;;;;;;8.10;6.72;;;;;;;;;;5053670;28;20060;-47
2021/06/26 05:42:32;;;;;;;9.27;6.57;;;;;;;;;;5053622;28;20413;-46
2021/06/26 05:44:59;;;;;;;9.63;6.68;;;;;;;;;;5053642;28;20587;-51
2021/06/26 05:47:25;;;;;;;8.55;7.35;;;;;;;;;;5053736;28;20055;-46
2021/06/26 05:49:53;;;;;;;8.68;6.72;;;;;;;;;;5035689;28;20564;-50
2021/06/26 05:52:20;;;;;;;7.35;6.45;;;;;;;;;;5053044;28;20040;-46
2021/06/26 05:54:47;;;;;;;9.52;7.15;;;;;;;;;;5062820;28;20393;-48
2021/06/26 05:57:14;;;;;;;8.73;6.38;;;;;;;;;;5073649;28;20056;-46
2021/06/26 05:59:41;;;;;;;9.10;7.57;;;;;;;;;;5073375;28;20131;-46
2021/06/26 06:02:12;;;;;;;9.68;7.32;;;;;;;;;;5067637;28;20053;-44
2021/06/26 06:04:40;;;;;;;8.23;6.75;;;;;;;;;;5082446;22;20044;-39
2021/06/26 06:07:07;;;;;;;9.20;7.40;;;;;;;;;;5071706;28;20474;-38
2021/06/26 06:09:34;;;;;;;9.43;7.22;;;;;;;;;;5072266;28;20044;-39
2021/06/26 06:12:01;;;;;;;10.20;8.82;;;;;;;;;;5070324;28;20135;-39
2021/06/26 06:14:28;;;;;;;10.27;7.57;;;;;;;;;;5051504;28;20120;-39
2021/06/26 06:16:55;;;;;;;11.25;8.05;;;;;;;;;;5051645;28;20075;-41
2021/06/26 06:19:22;;;;;;;8.88;7.80;;;;;;;;;;5051868;28;20186;-42
2021/06/26 06:21:48;;;;;;;9.57;8.38;;;;;;;;;;5050771;28;20112;-39
2021/06/26 06:24:17;;;;;;;9.60;8.00;;;;;;;;;;5051631;28;20081;-38
2021/06/26 06:26:44;;;;;;;9.43;8.43;;;;;;;;;;5051727;28;20130;-40
2021/06/26 06:29:11;;;;;;;10.15;7.68;;;;;;;;;;5033955;28;20076;-40
2021/06/26 06:31:37;;;;;;;9.77;7.82;;;;;;;;;;5038960;28;20391;-39
2021/06/26 06:34:04;;;;;;;10.73;8.07;;;;;;;;;;5060704;28;20113;-42
2021/06/26 06:36:31;;;;;;;10.23;8.18;;;;;;;;;;5035344;28;20083;-39
2021/06/26 06:38:58;;;;;;;10.23;8.13;;;;;;;;;;5051191;28;20079;-39
2021/06/26 06:41:25;;;;;;;11.80;9.20;;;;;;;;;;5041527;28;20058;-39
2021/06/26 06:43:52;;;;;;;11.45;9.48;;;;;;;;;;5069205;28;20048;-38
2021/06/26 06:46:19;;;;;;;11.32;8.93;;;;;;;;;;5091284;28;20054;-40
2021/06/26 06:48:46;;;;;;;10.73;9.02;;;;;;;;;;5076087;28;20041;-39
2021/06/26 06:51:13;;;;;;;10.93;8.85;;;;;;;;;;5050347;28;20053;-40
2021/06/26 06:53:40;;;;;;;10.18;8.50;;;;;;;;;;5051346;28;20114;-39
2021/06/26 06:56:07;;;;;;;11.95;8.63;;;;;;;;;;5063853;28;20056;-42
2021/06/26 06:58:34;;;;;;;9.52;8.52;;;;;;;;;;5069814;28;20056;-43
2021/06/26 07:01:02;;;;;;;9.43;8.43;;;;;;;;;;5074078;28;20071;-41
2021/06/26 07:03:29;;;;;;;13.07;8.88;;;;;;;;;;5048881;28;20044;-42
2021/06/26 07:05:56;;;;;;;10.20;8.45;;;;;;;;;;5070914;28;20493;-39
2021/06/26 07:08:23;;;;;;;8.95;7.90;;;;;;;;;;5070405;28;20127;-40
2021/06/26 07:10:49;;;;;;;9.63;8.63;;;;;;;;;;5059881;28;20045;-42
2021/06/26 07:13:16;;;;;;;9.20;7.97;;;;;;;;;;5063435;28;20409;-40
2021/06/26 07:15:44;;;;;;;8.68;6.90;;;;;;;;;;5069784;28;20616;-40
2021/06/26 07:18:12;;;;;;;9.43;7.35;;;;;;;;;;5070184;28;20418;-40
2021/06/26 07:20:40;;;;;;;9.10;7.18;;;;;;;;;;5070924;28;20131;-40
2021/06/26 07:23:06;;;;;;;12.60;9.00;;;;;;;;;;5052066;28;20049;-39
2021/06/26 07:25:33;;;;;;;10.95;7.30;;;;;;;;;;5070475;28;20072;-40
2021/06/26 07:28:01;;;;;;;10.13;7.07;;;;;;;;;;5070215;28;20127;-41
2021/06/26 07:30:28;;;;;;;9.55;7.20;;;;;;;;;;5058411;28;20156;-40
2021/06/26 07:32:55;;;;;;;10.07;7.55;;;;;;;;;;5070235;28;20037;-40
2021/06/26 07:35:21;;;;;;;12.63;8.35;;;;;;;;;;5061136;28;20099;-40
2021/06/26 07:37:48;;;;;;;9.20;7.10;;;;;;;;;;5067228;28;20068;-39
2021/06/26 07:40:15;;;;;;;9.45;6.78;;;;;;;;;;5063475;28;20045;-39
2021/06/26 07:42:42;;;;;;;9.02;6.15;;;;;;;;;;5068283;28;20075;-39
2021/06/26 07:45:09;;;;;;;7.63;6.07;;;;;;;;;;5043797;28;20052;-41
2021/06/26 07:47:36;;;;;;;8.88;6.30;;;;;;;;;;5068373;28;20049;-42
2021/06/26 07:50:04;;;;;;;9.20;7.40;;;;;;;;;;5068586;28;20037;-43
2021/06/26 07:52:31;;;;;;;9.07;6.57;;;;;;;;;;5065968;28;20488;-40
2021/06/26 07:54:57;;;;;;;7.30;5.68;;;;;;;;;;5055305;28;20106;-39
2021/06/26 07:57:24;;;;;;;6.60;5.90;;;;;;;;;;5073419;28;20049;-39
2021/06/26 07:59:51;;;;;;;6.80;5.80;;;;;;;;;;5073200;28;20135;-39
2021/06/26 08:02:18;;;;;;;8.77;5.13;;;;;;;;;;5074976;28;20105;-38
2021/06/26 08:04:45;;;;;;;7.57;4.90;;;;;;;;;;5073612;28;20096;-42
2021/06/26 08:07:12;;;;;;;6.10;5.13;;;;;;;;;;5066678;28;20080;-43
2021/06/26 08:09:38;;;;;;;6.07;5.18;;;;;;;;;;5066720;28;20390;-43
2021/06/26 08:12:07;;;;;;;6.90;5.45;;;;;;;;;;5068393;28;20366;-41
2021/06/26 08:14:34;;;;;;;8.00;5.10;;;;;;;;;;5071419;28;20119;-43
2021/06/26 08:17:00;;;;;;;6.07;4.82;;;;;;;;;;5073741;28;20044;-43
2021/06/26 08:19:27;;;;;;;6.00;5.07;;;;;;;;;;5069319;28;20055;-43
2021/06/26 08:21:54;;;;;;;6.00;4.78;;;;;;;;;;5069218;28;20501;-44
2021/06/26 08:24:22;;;;;;;6.43;4.30;;;;;;;;;;5068294;28;20049;-43
2021/06/26 08:26:56;;;;;;;5.00;4.47;;;;;;;;;;5063796;28;20514;-44
2021/06/26 08:29:23;;;;;;;5.07;4.57;;;;;;;;;;5069723;28;20121;-41
2021/06/26 08:31:50;;;;;;;5.30;4.20;;;;;;;;;;5072383;28;20454;-42
2021/06/26 08:34:17;;;;;;;5.40;4.80;;;;;;;;;;5054935;28;20118;-41
2021/06/26 08:36:43;;;;;;;6.32;4.53;;;;;;;;;;5055335;28;20433;-41
2021/06/26 08:39:10;;;;;;;6.97;5.05;;;;;;;;;;5072802;28;20057;-41
2021/06/26 08:41:43;;;;;;;6.13;5.13;;;;;;;;;;5072790;28;20058;-42
2021/06/26 08:44:09;;;;;;;;;;;;;;;;;;5072460;28;20079;-43
2021/06/26 08:46:46;;;;;;;5.50;4.43;;;;;;;;;;5054405;28;20292;-43
2021/06/26 08:49:13;;;;;;;6.85;4.55;;;;;;;;;;5053003;28;20072;-42
2021/06/26 08:51:40;;;;;;;5.10;4.57;;;;;;;;;;5055909;28;20080;-41
2021/06/26 08:54:10;;;;;;;5.13;4.38;;;;;;;;;;5073394;28;20129;-42
2021/06/26 08:56:37;;;;;;;4.80;4.20;;;;;;;;;;5073417;28;20061;-41
2021/06/26 08:59:03;;;;;;;6.78;4.50;;;;;;;;;;5073443;28;20082;-44
2021/06/26 09:01:32;;;;;;;6.43;5.82;;;;;;;;;;5062471;28;20486;-46
2021/06/26 09:04:04;;;;;;;5.50;4.93;;;;;;;;;;5053948;28;20106;-41
2021/06/26 09:06:33;;;;;;;5.85;5.15;;;;;;;;;;5072738;28;20103;-41
2021/06/26 09:09:01;;;;;;;5.05;4.55;;;;;;;;;;5073067;28;20045;-42
2021/06/26 09:11:28;;;;;;;5.43;4.63;;;;;;;;;;5053885;28;20078;-41
2021/06/26 09:13:55;;;;;;;6.03;4.93;;;;;;;;;;5052709;28;20049;-45
2021/06/26 09:16:22;;;;;;;5.05;4.55;;;;;;;;;;5052692;28;20052;-42
2021/06/26 09:18:49;;;;;;;6.20;4.68;;;;;;;;;;5052483;28;20418;-43
2021/06/26 09:21:30;;;;;;;6.28;4.78;;;;;;;;;;5062685;28;20076;-45
2021/06/26 09:24:01;;;;;;;4.85;4.00;;;;;;;;;;5068330;28;20159;-44
2021/06/26 09:26:28;;;;;;;4.85;4.13;;;;;;;;;;5072605;28;20309;-43
2021/06/26 09:28:55;;;;;;;4.80;4.28;;;;;;;;;;5072711;28;20094;-42
2021/06/26 09:31:22;;;;;;;4.68;4.15;;;;;;;;;;5059735;28;20512;-47
2021/06/26 09:34:00;;;;;;;5.22;4.72;;;;;;;;;;5052462;28;20103;-42
2021/06/26 09:36:31;;;;;;;5.32;4.30;;;;;;;;;;5063302;28;20069;-41
2021/06/26 09:39:01;;;;;;;4.70;4.18;;;;;;;;;;5069485;28;20122;-41
2021/06/26 09:41:28;;;;;;;5.18;4.07;;;;;;;;;;5052172;28;20553;-41
2021/06/26 09:44:06;;;;;;;5.00;4.32;;;;;;;;;;5052314;28;20103;-41
2021/06/26 09:46:42;;;;;;;6.05;3.80;;;;;;;;;;5052276;28;20056;-42
2021/06/26 09:49:09;;;;;;;8.60;4.43;;;;;;;;;;5067456;28;20055;-44
2021/06/26 09:51:36;;;;;;;5.03;4.35;;;;;;;;;;5069259;28;20179;-43
2021/06/26 09:54:04;;;;;;;5.35;4.05;;;;;;;;;;5067731;28;20465;-41
2021/06/26 09:56:44;;;;;;;4.85;3.75;;;;;;;;;;5071790;28;20533;-41
2021/06/26 09:59:12;;;;;;;5.20;3.88;;;;;;;;;;5072255;28;20124;-42
2021/06/26 10:01:43;;;;;;;5.50;3.58;;;;;;;;;;5052529;28;20131;-42
2021/06/26 10:04:14;;;;;;;4.50;3.50;;;;;;;;;;5051880;28;20075;-42
2021/06/26 10:06:44;;;;;;;5.07;4.43;;;;;;;;;;5051587;28;20556;-41
2021/06/26 10:09:13;;;;;;;5.57;4.07;;;;;;;;;;5054129;28;20056;-44
2021/06/26 10:11:40;;;;;;;4.53;3.38;;;;;;;;;;5065088;28;20060;-43
2021/06/26 10:14:08;;;;;;;4.57;3.53;;;;;;;;;;5071524;28;20413;-42
2021/06/26 10:16:36;;;;;;;4.18;3.47;;;;;;;;;;5071766;28;20083;-45
2021/06/26 10:19:04;;;;;;;5.38;3.38;;;;;;;;;;5058482;28;20048;-43
2021/06/26 10:21:32;;;;;;;5.35;4.18;;;;;;;;;;5052534;28;20088;-45
2021/06/26 10:23:59;;;;;;;3.63;3.17;;;;;;;;;;5071517;28;20448;-44
2021/06/26 10:26:27;;;;;;;4.35;3.67;;;;;;;;;;5071211;28;20055;-41
2021/06/26 10:28:59;;;;;;;6.00;3.50;;;;;;;;;;5053497;28;20053;-40
2021/06/26 10:31:31;;;;;;;3.97;3.40;;;;;;;;;;5056460;28;20607;-40
2021/06/26 10:34:27;;;;;;;5.25;4.40;;;;;;;;;;5051170;28;20053;-45
2021/06/26 10:36:54;;;;;;;6.30;4.78;;;;;;;;;;5042576;28;20095;-42
2021/06/26 10:39:26;;;;;;;4.28;3.67;;;;;;;;;;5054803;28;20460;-43
2021/06/26 10:42:04;;;;;;;4.38;3.35;;;;;;;;;;5071062;28;20122;-41
2021/06/26 10:44:39;;;;;;;4.00;3.10;;;;;;;;;;5071047;28;20117;-41
2021/06/26 10:47:06;;;;;;;4.35;3.55;;;;;;;;;;5065641;28;20079;-45
2021/06/26 10:49:33;;;;;;;3.58;3.03;;;;;;;;;;5051015;28;20453;-39
2021/06/26 10:52:08;;;;;;;4.70;3.45;;;;;;;;;;5056396;28;20060;-41
2021/06/26 10:54:35;;;;;;;4.90;2.80;;;;;;;;;;5070904;28;20048;-41
2021/06/26 10:57:06;;;;;;;5.65;3.30;;;;;;;;;;5070854;28;20509;-40
2021/06/26 10:59:33;;;;;;;4.15;3.22;;;;;;;;;;5062011;28;20108;-41
2021/06/26 11:02:03;;;;;;;4.45;3.50;;;;;;;;;;5066332;28;20044;-42
2021/06/26 11:04:32;;;;;;;5.15;3.08;;;;;;;;;;5070772;28;20049;-41
2021/06/26 11:07:06;;;;;;;6.07;3.10;;;;;;;;;;5070884;28;20509;-40
2021/06/26 11:09:36;;;;;;;3.25;2.90;;;;;;;;;;5051300;28;20048;-40
2021/06/26 11:12:14;;;;;;;3.97;3.10;;;;;;;;;;5049798;28;20103;-43
2021/06/26 11:14:48;;;;;;;4.75;3.03;;;;;;;;;;5050776;28;20049;-45
2021/06/26 11:17:15;;;;;;;4.03;2.88;;;;;;;;;;5051720;28;20454;-42
2021/06/26 11:19:42;;;;;;;3.42;2.72;;;;;;;;;;5052667;28;20505;-41
2021/06/26 11:22:12;;;;;;;3.95;3.05;;;;;;;;;;5063353;28;20224;-44
2021/06/26 11:24:58;;;;;;;3.95;2.90;;;;;;;;;;5032893;28;20055;-41
2021/06/26 11:27:25;;;;;;;4.80;3.30;;;;;;;;;;5051686;28;20048;-42
2021/06/26 11:29:59;;;;;;;4.78;2.92;;;;;;;;;;5054774;28;20052;-44
2021/06/26 11:32:27;;;;;;;3.88;3.17;;;;;;;;;;5054742;28;20049;-42
2021/06/26 11:34:53;;;;;;;4.07;3.05;;;;;;;;;;5060849;28;20142;-41
2021/06/26 11:37:21;;;;;;;4.25;3.40;;;;;;;;;;5074958;28;20052;-44
2021/06/26 11:39:47;;;;;;;4.38;3.45;;;;;;;;;;5056641;28;20053;-41
2021/06/26 11:42:15;;;;;;;4.07;3.50;;;;;;;;;;5054721;28;20053;-41
2021/06/26 11:44:42;;;;;;;4.25;3.05;;;;;;;;;;5054790;28;20547;-42
2021/06/26 11:47:09;;;;;;;4.07;2.90;;;;;;;;;;5062380;28;20049;-45
2021/06/26 11:49:36;;;;;;;3.72;2.83;;;;;;;;;;5075495;28;20464;-42
2021/06/26 11:52:04;;;;;;;4.55;3.40;;;;;;;;;;5073364;28;20127;-42
2021/06/26 11:54:30;;;;;;;4.53;3.00;;;;;;;;;;5074152;28;20045;-41
2021/06/26 11:56:57;;;;;;;3.80;3.20;;;;;;;;;;5056600;28;20078;-42
2021/06/26 11:59:29;;;;;;;3.95;3.28;;;;;;;;;;5073144;28;20098;-42
2021/06/26 12:01:56;;;;;;;5.67;3.37;;;;;;;;;;5074229;28;20060;-40
2021/06/26 12:04:28;;;;;;;3.63;3.10;;;;;;;;;;5074033;28;20838;-41
2021/06/26 12:06:55;;;;;;;3.43;3.13;;;;;;;;;;5074933;28;20047;-40
2021/06/26 12:09:23;;;;;;;3.92;3.13;;;;;;;;;;5064539;28;20061;-41
2021/06/26 12:11:51;;;;;;;4.90;3.22;;;;;;;;;;5053960;28;20179;-43
2021/06/26 12:14:24;;;;;;;4.93;3.33;;;;;;;;;;5054141;28;20562;-42
2021/06/26 12:16:52;;;;;;;5.55;3.15;;;;;;;;;;5053694;28;20072;-45
2021/06/26 12:19:27;;;;;;;3.95;3.20;;;;;;;;;;5054079;28;20053;-46
2021/06/26 12:21:54;;;;;;;3.95;3.10;;;;;;;;;;5063245;28;20073;-42
2021/06/26 12:24:32;;;;;;;3.13;2.83;;;;;;;;;;5072940;28;20454;-44
2021/06/26 12:27:08;;;;;;;3.55;3.00;;;;;;;;;;5073853;28;20044;-43
2021/06/26 12:29:37;;;;;;;5.97;3.20;;;;;;;;;;5067038;28;20045;-44
2021/06/26 12:32:04;;;;;;;3.33;2.85;;;;;;;;;;5053357;28;20056;-45
2021/06/26 12:34:31;;;;;;;3.80;3.00;;;;;;;;;;5053458;28;20154;-46
2021/06/26 12:36:59;;;;;;;4.80;3.08;;;;;;;;;;5053301;28;20065;-45
2021/06/26 12:39:32;;;;;;;4.13;2.90;;;;;;;;;;5052147;28;20102;-43
2021/06/26 12:42:04;;;;;;;3.38;2.90;;;;;;;;;;5053364;28;20053;-44
2021/06/26 12:44:31;;;;;;;3.42;2.80;;;;;;;;;;5073224;28;20139;-43
2021/06/26 12:46:58;;;;;;;4.40;2.88;;;;;;;;;;5068945;28;20127;-42
2021/06/26 12:49:34;;;;;;;3.83;2.83;;;;;;;;;;5053158;28;20075;-45
2021/06/26 12:52:08;;;;;;;4.57;2.58;;;;;;;;;;5052841;28;20487;-47
2021/06/26 12:54:45;;;;;;;3.85;2.78;;;;;;;;;;5053150;28;20056;-44
2021/06/26 12:57:12;;;;;;;4.05;2.67;;;;;;;;;;5053221;28;20049;-41
2021/06/26 12:59:39;;;;;;;4.22;2.88;;;;;;;;;;5038139;28;20505;-44
2021/06/26 13:02:06;;;;;;;3.75;2.85;;;;;;;;;;5052827;28;20490;-42
2021/06/26 13:04:44;;;;;;;3.53;2.92;;;;;;;;;;5052876;28;20463;-43
2021/06/26 13:07:25;;;;;;;3.63;3.08;;;;;;;;;;5035179;28;20051;-45
2021/06/26 13:10:01;;;;;;;4.00;2.88;;;;;;;;;;5051674;28;20352;-43
2021/06/26 13:12:28;;;;;;;4.85;3.00;;;;;;;;;;5064453;28;20049;-41
2021/06/26 13:14:59;;;;;;;3.13;2.60;;;;;;;;;;5073008;28;20084;-42
2021/06/26 13:17:26;;;;;;;3.53;2.28;;;;;;;;;;5072277;28;20079;-40
2021/06/26 13:19:53;;;;;;;4.72;3.20;;;;;;;;;;5072973;28;20468;-42
2021/06/26 13:22:32;;;;;;;2.95;2.50;;;;;;;;;;5061756;28;20137;-42
2021/06/26 13:24:59;;;;;;;4.35;2.90;;;;;;;;;;5052763;28;20474;-44
2021/06/26 13:27:26;;;;;;;4.05;2.88;;;;;;;;;;5052893;28;20056;-43
2021/06/26 13:29:54;;;;;;;5.60;2.60;;;;;;;;;;5053060;28;20053;-42
2021/06/26 13:32:20;;;;;;;3.22;2.50;;;;;;;;;;5049816;28;20446;-43
2021/06/26 13:34:47;;;;;;;4.35;3.13;;;;;;;;;;5048335;28;20097;-44
2021/06/26 13:37:14;;;;;;;4.97;2.75;;;;;;;;;;5037740;28;20044;-44
2021/06/26 13:39:41;;;;;;;4.63;2.78;;;;;;;;;;5059906;28;20107;-42
2021/06/26 13:42:09;;;;;;;4.22;2.80;;;;;;;;;;5034244;28;20441;-43
2021/06/26 13:44:36;;;;;;;3.40;2.92;;;;;;;;;;5052245;28;20536;-43
2021/06/26 13:47:03;;;;;;;4.97;2.67;;;;;;;;;;5052134;28;20065;-41
2021/06/26 13:49:32;;;;;;;4.68;2.83;;;;;;;;;;5051928;28;20045;-43
2021/06/26 13:51:58;;;;;;;3.15;2.50;;;;;;;;;;5060597;28;20084;-41
2021/06/26 13:54:25;;;;;;;3.40;2.75;;;;;;;;;;5052104;28;20461;-42
2021/06/26 13:56:52;;;;;;;3.03;2.58;;;;;;;;;;5052194;28;20144;-43
2021/06/26 13:59:19;;;;;;;3.92;2.72;;;;;;;;;;5051853;28;20057;-42
2021/06/26 14:01:46;;;;;;;3.45;2.75;;;;;;;;;;5065668;28;20044;-40
2021/06/26 14:04:13;;;;;;;3.45;2.72;;;;;;;;;;5071357;28;20418;-42
2021/06/26 14:06:39;;;;;;;4.80;3.10;;;;;;;;;;5072021;28;20056;-41
2021/06/26 14:09:06;;;;;;;3.72;2.80;;;;;;;;;;5056597;28;20049;-43
2021/06/26 14:11:33;;;;;;;3.10;2.78;;;;;;;;;;5051657;28;20056;-45
2021/06/26 14:14:00;;;;;;;3.42;2.70;;;;;;;;;;5052060;28;20049;-43
2021/06/26 14:16:27;;;;;;;4.45;2.53;;;;;;;;;;5051603;28;20051;-43
2021/06/26 14:18:54;;;;;;;4.93;2.72;;;;;;;;;;5052017;28;20111;-43
2021/06/26 14:21:21;;;;;;;3.85;2.80;;;;;;;;;;5064473;28;20048;-42
2021/06/26 14:23:48;;;;;;;3.50;3.17;;;;;;;;;;5051698;28;20072;-42
2021/06/26 14:26:15;;;;;;;3.67;2.80;;;;;;;;;;5051483;28;20091;-42
2021/06/26 14:28:42;;;;;;;3.72;2.80;;;;;;;;;;5071378;28;20165;-44
2021/06/26 14:31:09;;;;;;;3.38;3.00;;;;;;;;;;5066379;28;20054;-43
2021/06/26 14:33:36;;;;;;;5.13;2.97;;;;;;;;;;5033169;28;20057;-42
2021/06/26 14:36:03;;;;;;;3.35;2.75;;;;;;;;;;5033584;28;20103;-43
2021/06/26 14:38:33;;;;;;;2.95;2.65;;;;;;;;;;5051313;28;20159;-42
2021/06/26 14:41:00;;;;;;;4.15;2.80;;;;;;;;;;5051095;28;20052;-42
2021/06/26 14:43:27;;;;;;;3.17;2.65;;;;;;;;;;5052104;28;20048;-42
2021/06/26 14:45:55;;;;;;;4.10;2.53;;;;;;;;;;5053296;28;20457;-43